sensor_id;sensor_type;location;lat;lon;timestamp;P1;P2;P0
49644;PMS5003;36494;50.730;-1.932;2023-09-07T00:00:27;24;24;
49644;PMS5003;36494;50.730;-1.932;2023-09-07T00:02:53;21;20;
49644;PMS5003;36494;50.730;-1.932;2023-09-07T00:05:18;24;23;
49644;PMS5003;36494;50.730;-1.932;2023-09-07T00:07:44;20;20;
49644;PMS5003;36494;50.730;-1.932;2023-09-07T00:10:10;18;18;
49644;PMS5003;36494;50.730;-1.932;2023-09-07T00:12:35;20;20;
49644;PMS5003;36494;50.730;-1.932;2023-09-07T00:15:01;22;21;
49644;PMS5003;36494;50.730;-1.932;2023-09-07T00:17:26;23;22;
49644;PMS5003;36494;50.730;-1.932;2023-09-07T00:19:52;21;20;
49644;PMS5003;36494;50.730;-1.932;2023-09-07T00:22:18;21;21;
49644;PMS5003;36494;50.730;-1.932;2023-09-07T00:24:43;21;20;
49644;PMS5003;36494;50.730;-1.932;2023-09-07T00:27:09;23;23;
49644;PMS5003;36494;50.730;-1.932;2023-09-07T00:29:34;20;20;
49644;PMS5003;36494;50.730;-1.932;2023-09-07T00:32:00;22;22;
49644;PMS5003;36494;50.730;-1.932;2023-09-07T00:34:25;22;21;
49644;PMS5003;36494;50.730;-1.932;2023-09-07T00:36:51;23;23;
49644;PMS5003;36494;50.730;-1.932;2023-09-07T00:39:16;21;20;
49644;PMS5003;36494;50.730;-1.932;2023-09-07T00:41:41;22;22;
49644;PMS5003;36494;50.730;-1.932;2023-09-07T00:44:07;21;21;
49644;PMS5003;36494;50.730;-1.932;2023-09-07T00:46:33;22;22;
49644;PMS5003;36494;50.730;-1.932;2023-09-07T00:48:58;24;23;
49644;PMS5003;36494;50.730;-1.932;2023-09-07T00:51:24;22;22;
49644;PMS5003;36494;50.730;-1.932;2023-09-07T00:53:49;24;23;
49644;PMS5003;36494;50.730;-1.932;2023-09-07T00:56:15;26;24;
49644;PMS5003;36494;50.730;-1.932;2023-09-07T00:58:41;24;23;
49644;PMS5003;36494;50.730;-1.932;2023-09-07T01:01:06;23;22;
49644;PMS5003;36494;50.730;-1.932;2023-09-07T01:03:31;20;19;
49644;PMS5003;36494;50.730;-1.932;2023-09-07T01:05:58;23;23;
49644;PMS5003;36494;50.730;-1.932;2023-09-07T01:08:24;28;26;
49644;PMS5003;36494;50.730;-1.932;2023-09-07T01:10:48;20;20;
49644;PMS5003;36494;50.730;-1.932;2023-09-07T01:13:14;26;24;
49644;PMS5003;36494;50.730;-1.932;2023-09-07T01:15:40;19;19;
49644;PMS5003;36494;50.730;-1.932;2023-09-07T01:18:06;26;24;
49644;PMS5003;36494;50.730;-1.932;2023-09-07T01:20:32;22;22;
49644;PMS5003;36494;50.730;-1.932;2023-09-07T01:22:57;22;22;
49644;PMS5003;36494;50.730;-1.932;2023-09-07T01:25:23;23;23;
49644;PMS5003;36494;50.730;-1.932;2023-09-07T01:27:49;20;20;
49644;PMS5003;36494;50.730;-1.932;2023-09-07T01:30:16;23;23;
49644;PMS5003;36494;50.730;-1.932;2023-09-07T01:32:40;24;24;
49644;PMS5003;36494;50.730;-1.932;2023-09-07T01:35:06;23;23;
49644;PMS5003;36494;50.730;-1.932;2023-09-07T01:37:31;26;26;
49644;PMS5003;36494;50.730;-1.932;2023-09-07T01:39:56;27;27;
49644;PMS5003;36494;50.730;-1.932;2023-09-07T01:42:22;26;26;
49644;PMS5003;36494;50.730;-1.932;2023-09-07T01:44:48;24;23;
49644;PMS5003;36494;50.730;-1.932;2023-09-07T01:47:13;23;23;
49644;PMS5003;36494;50.730;-1.932;2023-09-07T01:49:39;28;26;
49644;PMS5003;36494;50.730;-1.932;2023-09-07T01:52:04;22;21;
49644;PMS5003;36494;50.730;-1.932;2023-09-07T01:54:30;22;22;
49644;PMS5003;36494;50.730;-1.932;2023-09-07T01:56:56;21;20;
49644;PMS5003;36494;50.730;-1.932;2023-09-07T01:59:21;23;21;
49644;PMS5003;36494;50.730;-1.932;2023-09-07T02:01:47;24;22;
49644;PMS5003;36494;50.730;-1.932;2023-09-07T02:04:12;24;24;
49644;PMS5003;36494;50.730;-1.932;2023-09-07T02:06:37;24;22;
49644;PMS5003;36494;50.730;-1.932;2023-09-07T02:09:03;24;24;
49644;PMS5003;36494;50.730;-1.932;2023-09-07T02:11:29;27;27;
49644;PMS5003;36494;50.730;-1.932;2023-09-07T02:13:54;22;21;
49644;PMS5003;36494;50.730;-1.932;2023-09-07T02:16:19;22;21;
49644;PMS5003;36494;50.730;-1.932;2023-09-07T02:18:45;25;24;
49644;PMS5003;36494;50.730;-1.932;2023-09-07T02:21:10;25;25;
49644;PMS5003;36494;50.730;-1.932;2023-09-07T02:23:36;23;23;
49644;PMS5003;36494;50.730;-1.932;2023-09-07T02:26:02;27;27;
49644;PMS5003;36494;50.730;-1.932;2023-09-07T02:28:27;26;23;
49644;PMS5003;36494;50.730;-1.932;2023-09-07T02:30:53;22;22;
49644;PMS5003;36494;50.730;-1.932;2023-09-07T02:33:18;25;24;
49644;PMS5003;36494;50.730;-1.932;2023-09-07T02:35:44;29;28;
49644;PMS5003;36494;50.730;-1.932;2023-09-07T02:38:10;22;22;
49644;PMS5003;36494;50.730;-1.932;2023-09-07T02:40:39;22;21;
49644;PMS5003;36494;50.730;-1.932;2023-09-07T02:43:01;24;22;
49644;PMS5003;36494;50.730;-1.932;2023-09-07T02:45:26;21;20;
49644;PMS5003;36494;50.730;-1.932;2023-09-07T02:47:51;23;22;
49644;PMS5003;36494;50.730;-1.932;2023-09-07T02:50:17;28;27;
49644;PMS5003;36494;50.730;-1.932;2023-09-07T02:52:42;24;24;
49644;PMS5003;36494;50.730;-1.932;2023-09-07T02:55:07;24;23;
49644;PMS5003;36494;50.730;-1.932;2023-09-07T02:57:34;25;25;
49644;PMS5003;36494;50.730;-1.932;2023-09-07T02:59:59;27;26;
49644;PMS5003;36494;50.730;-1.932;2023-09-07T03:02:24;26;25;
49644;PMS5003;36494;50.730;-1.932;2023-09-07T03:04:53;26;25;
49644;PMS5003;36494;50.730;-1.932;2023-09-07T03:07:16;23;23;
49644;PMS5003;36494;50.730;-1.932;2023-09-07T03:09:41;28;27;
49644;PMS5003;36494;50.730;-1.932;2023-09-07T03:12:07;28;27;
49644;PMS5003;36494;50.730;-1.932;2023-09-07T03:14:32;25;24;
49644;PMS5003;36494;50.730;-1.932;2023-09-07T03:16:57;23;23;
49644;PMS5003;36494;50.730;-1.932;2023-09-07T03:19:23;28;28;
49644;PMS5003;36494;50.730;-1.932;2023-09-07T03:21:48;27;26;
49644;PMS5003;36494;50.730;-1.932;2023-09-07T03:24:14;29;29;
49644;PMS5003;36494;50.730;-1.932;2023-09-07T03:26:39;26;25;
49644;PMS5003;36494;50.730;-1.932;2023-09-07T03:29:05;25;25;
49644;PMS5003;36494;50.730;-1.932;2023-09-07T03:31:30;30;28;
49644;PMS5003;36494;50.730;-1.932;2023-09-07T03:33:56;34;33;
49644;PMS5003;36494;50.730;-1.932;2023-09-07T03:36:22;28;27;
49644;PMS5003;36494;50.730;-1.932;2023-09-07T03:38:47;31;30;
49644;PMS5003;36494;50.730;-1.932;2023-09-07T03:41:13;33;33;
49644;PMS5003;36494;50.730;-1.932;2023-09-07T03:43:38;31;31;
49644;PMS5003;36494;50.730;-1.932;2023-09-07T03:46:03;32;30;
49644;PMS5003;36494;50.730;-1.932;2023-09-07T03:48:29;33;31;
49644;PMS5003;36494;50.730;-1.932;2023-09-07T03:50:54;33;33;
49644;PMS5003;36494;50.730;-1.932;2023-09-07T03:53:19;35;32;
49644;PMS5003;36494;50.730;-1.932;2023-09-07T03:55:45;37;37;
49644;PMS5003;36494;50.730;-1.932;2023-09-07T03:58:11;40;39;
49644;PMS5003;36494;50.730;-1.932;2023-09-07T04:00:38;36;33;
49644;PMS5003;36494;50.730;-1.932;2023-09-07T04:03:02;37;36;
49644;PMS5003;36494;50.730;-1.932;2023-09-07T04:05:27;33;32;
49644;PMS5003;36494;50.730;-1.932;2023-09-07T04:07:52;35;33;
49644;PMS5003;36494;50.730;-1.932;2023-09-07T04:10:17;33;32;
49644;PMS5003;36494;50.730;-1.932;2023-09-07T04:12:43;37;36;
49644;PMS5003;36494;50.730;-1.932;2023-09-07T04:15:09;38;35;
49644;PMS5003;36494;50.730;-1.932;2023-09-07T04:17:34;38;38;
49644;PMS5003;36494;50.730;-1.932;2023-09-07T04:20:00;34;34;
49644;PMS5003;36494;50.730;-1.932;2023-09-07T04:22:25;37;36;
49644;PMS5003;36494;50.730;-1.932;2023-09-07T04:24:50;41;40;
49644;PMS5003;36494;50.730;-1.932;2023-09-07T04:27:16;38;34;
49644;PMS5003;36494;50.730;-1.932;2023-09-07T04:29:41;37;36;
49644;PMS5003;36494;50.730;-1.932;2023-09-07T04:32:07;39;38;
49644;PMS5003;36494;50.730;-1.932;2023-09-07T04:34:33;41;40;
49644;PMS5003;36494;50.730;-1.932;2023-09-07T04:36:58;38;37;
49644;PMS5003;36494;50.730;-1.932;2023-09-07T04:39:24;37;35;
49644;PMS5003;36494;50.730;-1.932;2023-09-07T04:41:49;36;36;
49644;PMS5003;36494;50.730;-1.932;2023-09-07T04:44:15;33;33;
49644;PMS5003;36494;50.730;-1.932;2023-09-07T04:46:40;38;36;
49644;PMS5003;36494;50.730;-1.932;2023-09-07T04:49:06;42;41;
49644;PMS5003;36494;50.730;-1.932;2023-09-07T04:51:31;35;34;
49644;PMS5003;36494;50.730;-1.932;2023-09-07T04:53:57;36;35;
49644;PMS5003;36494;50.730;-1.932;2023-09-07T04:56:22;39;38;
49644;PMS5003;36494;50.730;-1.932;2023-09-07T04:58:48;38;37;
49644;PMS5003;36494;50.730;-1.932;2023-09-07T05:01:14;37;36;
49644;PMS5003;36494;50.730;-1.932;2023-09-07T05:03:39;35;33;
49644;PMS5003;36494;50.730;-1.932;2023-09-07T05:06:04;39;38;
49644;PMS5003;36494;50.730;-1.932;2023-09-07T05:08:30;37;36;
49644;PMS5003;36494;50.730;-1.932;2023-09-07T05:10:56;35;34;
49644;PMS5003;36494;50.730;-1.932;2023-09-07T05:13:21;44;43;
49644;PMS5003;36494;50.730;-1.932;2023-09-07T05:15:47;41;41;
49644;PMS5003;36494;50.730;-1.932;2023-09-07T05:18:12;33;33;
49644;PMS5003;36494;50.730;-1.932;2023-09-07T05:20:37;40;40;
49644;PMS5003;36494;50.730;-1.932;2023-09-07T05:23:02;38;37;
49644;PMS5003;36494;50.730;-1.932;2023-09-07T05:25:27;36;35;
49644;PMS5003;36494;50.730;-1.932;2023-09-07T05:27:53;35;35;
49644;PMS5003;36494;50.730;-1.932;2023-09-07T05:30:18;43;40;
49644;PMS5003;36494;50.730;-1.932;2023-09-07T05:32:45;39;35;
49644;PMS5003;36494;50.730;-1.932;2023-09-07T05:35:09;41;41;
49644;PMS5003;36494;50.730;-1.932;2023-09-07T05:37:35;37;37;
49644;PMS5003;36494;50.730;-1.932;2023-09-07T05:40:00;40;40;
49644;PMS5003;36494;50.730;-1.932;2023-09-07T05:42:26;36;35;
49644;PMS5003;36494;50.730;-1.932;2023-09-07T05:44:52;41;39;
49644;PMS5003;36494;50.730;-1.932;2023-09-07T05:47:17;38;37;
49644;PMS5003;36494;50.730;-1.932;2023-09-07T05:49:43;35;34;
49644;PMS5003;36494;50.730;-1.932;2023-09-07T05:52:08;38;38;
49644;PMS5003;36494;50.730;-1.932;2023-09-07T05:54:34;38;37;
49644;PMS5003;36494;50.730;-1.932;2023-09-07T05:56:59;43;41;
49644;PMS5003;36494;50.730;-1.932;2023-09-07T05:59:24;41;40;
49644;PMS5003;36494;50.730;-1.932;2023-09-07T06:01:50;44;43;
49644;PMS5003;36494;50.730;-1.932;2023-09-07T06:04:15;39;38;
49644;PMS5003;36494;50.730;-1.932;2023-09-07T06:06:41;36;35;
49644;PMS5003;36494;50.730;-1.932;2023-09-07T06:09:07;43;41;
49644;PMS5003;36494;50.730;-1.932;2023-09-07T06:11:32;42;42;
49644;PMS5003;36494;50.730;-1.932;2023-09-07T06:13:58;42;40;
49644;PMS5003;36494;50.730;-1.932;2023-09-07T06:16:23;41;40;
49644;PMS5003;36494;50.730;-1.932;2023-09-07T06:18:48;47;45;
49644;PMS5003;36494;50.730;-1.932;2023-09-07T06:21:14;48;44;
49644;PMS5003;36494;50.730;-1.932;2023-09-07T06:23:39;42;41;
49644;PMS5003;36494;50.730;-1.932;2023-09-07T06:26:05;45;44;
49644;PMS5003;36494;50.730;-1.932;2023-09-07T06:28:30;44;44;
49644;PMS5003;36494;50.730;-1.932;2023-09-07T06:30:56;48;46;
49644;PMS5003;36494;50.730;-1.932;2023-09-07T06:33:21;40;40;
49644;PMS5003;36494;50.730;-1.932;2023-09-07T06:35:46;41;40;
49644;PMS5003;36494;50.730;-1.932;2023-09-07T06:38:12;49;48;
49644;PMS5003;36494;50.730;-1.932;2023-09-07T06:40:37;41;40;
49644;PMS5003;36494;50.730;-1.932;2023-09-07T06:43:03;43;42;
49644;PMS5003;36494;50.730;-1.932;2023-09-07T06:45:28;44;43;
49644;PMS5003;36494;50.730;-1.932;2023-09-07T06:47:53;46;44;
49644;PMS5003;36494;50.730;-1.932;2023-09-07T06:50:19;47;46;
49644;PMS5003;36494;50.730;-1.932;2023-09-07T06:52:44;43;43;
49644;PMS5003;36494;50.730;-1.932;2023-09-07T06:55:10;48;45;
49644;PMS5003;36494;50.730;-1.932;2023-09-07T06:57:35;43;42;
49644;PMS5003;36494;50.730;-1.932;2023-09-07T07:00:01;50;49;
49644;PMS5003;36494;50.730;-1.932;2023-09-07T07:02:26;41;40;
49644;PMS5003;36494;50.730;-1.932;2023-09-07T07:04:51;47;44;
49644;PMS5003;36494;50.730;-1.932;2023-09-07T07:07:17;46;46;
49644;PMS5003;36494;50.730;-1.932;2023-09-07T07:09:42;42;40;
49644;PMS5003;36494;50.730;-1.932;2023-09-07T07:12:07;40;38;
49644;PMS5003;36494;50.730;-1.932;2023-09-07T07:14:33;39;38;
49644;PMS5003;36494;50.730;-1.932;2023-09-07T07:16:58;43;42;
49644;PMS5003;36494;50.730;-1.932;2023-09-07T07:19:24;41;40;
49644;PMS5003;36494;50.730;-1.932;2023-09-07T07:21:50;45;45;
49644;PMS5003;36494;50.730;-1.932;2023-09-07T07:24:15;43;42;
49644;PMS5003;36494;50.730;-1.932;2023-09-07T07:26:41;54;51;
49644;PMS5003;36494;50.730;-1.932;2023-09-07T07:29:07;40;39;
49644;PMS5003;36494;50.730;-1.932;2023-09-07T07:31:32;40;39;
49644;PMS5003;36494;50.730;-1.932;2023-09-07T07:33:58;44;43;
49644;PMS5003;36494;50.730;-1.932;2023-09-07T07:36:23;45;44;
49644;PMS5003;36494;50.730;-1.932;2023-09-07T07:38:49;47;46;
49644;PMS5003;36494;50.730;-1.932;2023-09-07T07:41:14;38;35;
49644;PMS5003;36494;50.730;-1.932;2023-09-07T07:43:40;44;44;
49644;PMS5003;36494;50.730;-1.932;2023-09-07T07:46:05;40;39;
49644;PMS5003;36494;50.730;-1.932;2023-09-07T07:48:31;39;39;
49644;PMS5003;36494;50.730;-1.932;2023-09-07T07:50:56;46;46;
49644;PMS5003;36494;50.730;-1.932;2023-09-07T07:53:21;43;41;
49644;PMS5003;36494;50.730;-1.932;2023-09-07T07:55:46;39;38;
49644;PMS5003;36494;50.730;-1.932;2023-09-07T07:58:12;45;45;
49644;PMS5003;36494;50.730;-1.932;2023-09-07T08:00:38;44;43;
49644;PMS5003;36494;50.730;-1.932;2023-09-07T08:03:04;40;39;
49644;PMS5003;36494;50.730;-1.932;2023-09-07T08:05:29;43;43;
49644;PMS5003;36494;50.730;-1.932;2023-09-07T08:07:56;47;46;
49644;PMS5003;36494;50.730;-1.932;2023-09-07T08:10:20;40;39;
49644;PMS5003;36494;50.730;-1.932;2023-09-07T08:12:45;43;40;
49644;PMS5003;36494;50.730;-1.932;2023-09-07T08:15:11;43;42;
49644;PMS5003;36494;50.730;-1.932;2023-09-07T08:17:36;44;43;
49644;PMS5003;36494;50.730;-1.932;2023-09-07T08:20:02;42;41;
49644;PMS5003;36494;50.730;-1.932;2023-09-07T08:22:27;47;45;
49644;PMS5003;36494;50.730;-1.932;2023-09-07T08:24:53;44;43;
49644;PMS5003;36494;50.730;-1.932;2023-09-07T08:27:19;37;37;
49644;PMS5003;36494;50.730;-1.932;2023-09-07T08:29:44;46;45;
49644;PMS5003;36494;50.730;-1.932;2023-09-07T08:32:10;44;44;
49644;PMS5003;36494;50.730;-1.932;2023-09-07T08:34:35;42;40;
49644;PMS5003;36494;50.730;-1.932;2023-09-07T08:37:00;48;47;
49644;PMS5003;36494;50.730;-1.932;2023-09-07T08:39:26;41;40;
49644;PMS5003;36494;50.730;-1.932;2023-09-07T08:41:51;39;38;
49644;PMS5003;36494;50.730;-1.932;2023-09-07T08:44:16;44;43;
49644;PMS5003;36494;50.730;-1.932;2023-09-07T08:46:41;46;43;
49644;PMS5003;36494;50.730;-1.932;2023-09-07T08:49:06;45;44;
49644;PMS5003;36494;50.730;-1.932;2023-09-07T08:51:32;40;37;
49644;PMS5003;36494;50.730;-1.932;2023-09-07T08:53:57;34;34;
49644;PMS5003;36494;50.730;-1.932;2023-09-07T08:56:23;45;44;
49644;PMS5003;36494;50.730;-1.932;2023-09-07T08:58:48;40;39;
49644;PMS5003;36494;50.730;-1.932;2023-09-07T09:01:13;39;37;
49644;PMS5003;36494;50.730;-1.932;2023-09-07T09:03:39;42;39;
49644;PMS5003;36494;50.730;-1.932;2023-09-07T09:06:05;37;37;
49644;PMS5003;36494;50.730;-1.932;2023-09-07T09:10:59;43;41;
49644;PMS5003;36494;50.730;-1.932;2023-09-07T09:15:47;34;34;
49644;PMS5003;36494;50.730;-1.932;2023-09-07T09:18:12;39;36;
49644;PMS5003;36494;50.730;-1.932;2023-09-07T09:20:38;40;38;
49644;PMS5003;36494;50.730;-1.932;2023-09-07T09:23:03;37;37;
49644;PMS5003;36494;50.730;-1.932;2023-09-07T09:25:30;36;35;
49644;PMS5003;36494;50.730;-1.932;2023-09-07T09:27:54;34;32;
49644;PMS5003;36494;50.730;-1.932;2023-09-07T09:30:19;41;40;
49644;PMS5003;36494;50.730;-1.932;2023-09-07T09:32:46;34;32;
49644;PMS5003;36494;50.730;-1.932;2023-09-07T09:35:11;32;32;
49644;PMS5003;36494;50.730;-1.932;2023-09-07T09:37:45;37;36;
49644;PMS5003;36494;50.730;-1.932;2023-09-07T09:40:01;38;38;
49644;PMS5003;36494;50.730;-1.932;2023-09-07T09:42:27;31;31;
49644;PMS5003;36494;50.730;-1.932;2023-09-07T09:44:52;34;34;
49644;PMS5003;36494;50.730;-1.932;2023-09-07T09:47:18;35;34;
49644;PMS5003;36494;50.730;-1.932;2023-09-07T09:49:43;33;33;
49644;PMS5003;36494;50.730;-1.932;2023-09-07T09:52:09;34;32;
49644;PMS5003;36494;50.730;-1.932;2023-09-07T09:54:35;32;32;
49644;PMS5003;36494;50.730;-1.932;2023-09-07T09:57:00;34;34;
49644;PMS5003;36494;50.730;-1.932;2023-09-07T09:59:26;32;31;
49644;PMS5003;36494;50.730;-1.932;2023-09-07T10:01:52;34;34;
49644;PMS5003;36494;50.730;-1.932;2023-09-07T10:04:17;35;33;
49644;PMS5003;36494;50.730;-1.932;2023-09-07T10:06:53;30;29;
49644;PMS5003;36494;50.730;-1.932;2023-09-07T10:09:11;38;38;
49644;PMS5003;36494;50.730;-1.932;2023-09-07T10:11:34;42;38;
49644;PMS5003;36494;50.730;-1.932;2023-09-07T10:13:59;33;33;
49644;PMS5003;36494;50.730;-1.932;2023-09-07T10:16:25;38;38;
49644;PMS5003;36494;50.730;-1.932;2023-09-07T10:18:50;39;37;
49644;PMS5003;36494;50.730;-1.932;2023-09-07T10:21:15;40;39;
49644;PMS5003;36494;50.730;-1.932;2023-09-07T10:23:42;32;31;
49644;PMS5003;36494;50.730;-1.932;2023-09-07T10:26:09;33;31;
49644;PMS5003;36494;50.730;-1.932;2023-09-07T10:28:32;41;40;
49644;PMS5003;36494;50.730;-1.932;2023-09-07T10:30:58;42;41;
49644;PMS5003;36494;50.730;-1.932;2023-09-07T10:33:22;38;38;
49644;PMS5003;36494;50.730;-1.932;2023-09-07T10:35:48;40;39;
49644;PMS5003;36494;50.730;-1.932;2023-09-07T10:38:13;37;37;
49644;PMS5003;36494;50.730;-1.932;2023-09-07T10:40:39;39;38;
49644;PMS5003;36494;50.730;-1.932;2023-09-07T10:43:05;33;32;
49644;PMS5003;36494;50.730;-1.932;2023-09-07T10:45:31;32;32;
49644;PMS5003;36494;50.730;-1.932;2023-09-07T10:47:56;41;40;
49644;PMS5003;36494;50.730;-1.932;2023-09-07T10:50:21;36;36;
49644;PMS5003;36494;50.730;-1.932;2023-09-07T10:52:47;29;29;
49644;PMS5003;36494;50.730;-1.932;2023-09-07T10:55:12;34;32;
49644;PMS5003;36494;50.730;-1.932;2023-09-07T10:57:41;33;33;
49644;PMS5003;36494;50.730;-1.932;2023-09-07T11:00:03;33;32;
49644;PMS5003;36494;50.730;-1.932;2023-09-07T11:02:28;36;33;
49644;PMS5003;36494;50.730;-1.932;2023-09-07T11:04:54;30;29;
49644;PMS5003;36494;50.730;-1.932;2023-09-07T11:07:19;38;36;
49644;PMS5003;36494;50.730;-1.932;2023-09-07T11:09:44;33;32;
49644;PMS5003;36494;50.730;-1.932;2023-09-07T11:12:13;31;31;
49644;PMS5003;36494;50.730;-1.932;2023-09-07T11:14:35;36;34;
49644;PMS5003;36494;50.730;-1.932;2023-09-07T11:17:01;37;35;
49644;PMS5003;36494;50.730;-1.932;2023-09-07T11:19:27;39;38;
49644;PMS5003;36494;50.730;-1.932;2023-09-07T11:21:53;31;30;
49644;PMS5003;36494;50.730;-1.932;2023-09-07T11:24:18;32;31;
49644;PMS5003;36494;50.730;-1.932;2023-09-07T11:26:45;39;38;
49644;PMS5003;36494;50.730;-1.932;2023-09-07T11:29:13;37;36;
49644;PMS5003;36494;50.730;-1.932;2023-09-07T11:31:35;38;36;
49644;PMS5003;36494;50.730;-1.932;2023-09-07T11:34:01;36;35;
49644;PMS5003;36494;50.730;-1.932;2023-09-07T11:36:26;39;38;
49644;PMS5003;36494;50.730;-1.932;2023-09-07T11:38:52;37;37;
49644;PMS5003;36494;50.730;-1.932;2023-09-07T11:41:18;37;37;
49644;PMS5003;36494;50.730;-1.932;2023-09-07T11:43:43;35;34;
49644;PMS5003;36494;50.730;-1.932;2023-09-07T11:46:09;31;31;
49644;PMS5003;36494;50.730;-1.932;2023-09-07T11:48:34;29;28;
49644;PMS5003;36494;50.730;-1.932;2023-09-07T11:51:00;34;33;
49644;PMS5003;36494;50.730;-1.932;2023-09-07T11:53:26;31;31;
49644;PMS5003;36494;50.730;-1.932;2023-09-07T11:55:52;25;25;
49644;PMS5003;36494;50.730;-1.932;2023-09-07T11:58:17;32;30;
49644;PMS5003;36494;50.730;-1.932;2023-09-07T12:00:43;27;27;
49644;PMS5003;36494;50.730;-1.932;2023-09-07T12:03:08;28;28;
49644;PMS5003;36494;50.730;-1.932;2023-09-07T12:05:34;29;29;
49644;PMS5003;36494;50.730;-1.932;2023-09-07T12:08:00;27;26;
49644;PMS5003;36494;50.730;-1.932;2023-09-07T12:10:25;28;28;
49644;PMS5003;36494;50.730;-1.932;2023-09-07T12:12:51;26;25;
49644;PMS5003;36494;50.730;-1.932;2023-09-07T12:15:16;30;30;
49644;PMS5003;36494;50.730;-1.932;2023-09-07T12:17:42;31;29;
49644;PMS5003;36494;50.730;-1.932;2023-09-07T12:20:08;36;35;
49644;PMS5003;36494;50.730;-1.932;2023-09-07T12:22:32;34;33;
49644;PMS5003;36494;50.730;-1.932;2023-09-07T12:24:57;34;33;
49644;PMS5003;36494;50.730;-1.932;2023-09-07T12:27:23;40;38;
49644;PMS5003;36494;50.730;-1.932;2023-09-07T12:29:49;34;34;
49644;PMS5003;36494;50.730;-1.932;2023-09-07T12:32:15;30;29;
49644;PMS5003;36494;50.730;-1.932;2023-09-07T12:34:40;42;41;
49644;PMS5003;36494;50.730;-1.932;2023-09-07T12:37:05;41;40;
49644;PMS5003;36494;50.730;-1.932;2023-09-07T12:39:31;43;40;
49644;PMS5003;36494;50.730;-1.932;2023-09-07T12:41:56;39;38;
49644;PMS5003;36494;50.730;-1.932;2023-09-07T12:44:22;47;44;
49644;PMS5003;36494;50.730;-1.932;2023-09-07T12:46:47;41;41;
49644;PMS5003;36494;50.730;-1.932;2023-09-07T12:49:12;36;36;
49644;PMS5003;36494;50.730;-1.932;2023-09-07T12:51:38;38;38;
49644;PMS5003;36494;50.730;-1.932;2023-09-07T12:54:04;36;35;
49644;PMS5003;36494;50.730;-1.932;2023-09-07T12:56:30;33;31;
49644;PMS5003;36494;50.730;-1.932;2023-09-07T12:58:55;31;31;
49644;PMS5003;36494;50.730;-1.932;2023-09-07T13:01:20;32;30;
49644;PMS5003;36494;50.730;-1.932;2023-09-07T13:03:46;34;31;
49644;PMS5003;36494;50.730;-1.932;2023-09-07T13:06:11;28;28;
49644;PMS5003;36494;50.730;-1.932;2023-09-07T13:08:36;29;29;
49644;PMS5003;36494;50.730;-1.932;2023-09-07T13:11:02;27;26;
49644;PMS5003;36494;50.730;-1.932;2023-09-07T13:13:27;27;26;
49644;PMS5003;36494;50.730;-1.932;2023-09-07T13:15:53;26;25;
49644;PMS5003;36494;50.730;-1.932;2023-09-07T13:18:19;24;23;
49644;PMS5003;36494;50.730;-1.932;2023-09-07T13:20:44;31;29;
49644;PMS5003;36494;50.730;-1.932;2023-09-07T13:23:09;33;32;
49644;PMS5003;36494;50.730;-1.932;2023-09-07T13:25:34;27;27;
49644;PMS5003;36494;50.730;-1.932;2023-09-07T13:28:00;34;32;
49644;PMS5003;36494;50.730;-1.932;2023-09-07T13:30:25;36;34;
49644;PMS5003;36494;50.730;-1.932;2023-09-07T13:32:50;31;31;
49644;PMS5003;36494;50.730;-1.932;2023-09-07T13:35:16;27;27;
49644;PMS5003;36494;50.730;-1.932;2023-09-07T13:37:42;27;26;
49644;PMS5003;36494;50.730;-1.932;2023-09-07T13:40:07;28;28;
49644;PMS5003;36494;50.730;-1.932;2023-09-07T13:42:32;31;31;
49644;PMS5003;36494;50.730;-1.932;2023-09-07T13:44:58;26;26;
49644;PMS5003;36494;50.730;-1.932;2023-09-07T13:47:23;26;26;
49644;PMS5003;36494;50.730;-1.932;2023-09-07T13:49:48;30;28;
49644;PMS5003;36494;50.730;-1.932;2023-09-07T13:52:14;31;31;
49644;PMS5003;36494;50.730;-1.932;2023-09-07T13:54:39;30;29;
49644;PMS5003;36494;50.730;-1.932;2023-09-07T13:57:05;30;29;
49644;PMS5003;36494;50.730;-1.932;2023-09-07T13:59:31;31;30;
49644;PMS5003;36494;50.730;-1.932;2023-09-07T14:01:56;34;34;
49644;PMS5003;36494;50.730;-1.932;2023-09-07T14:04:22;33;31;
49644;PMS5003;36494;50.730;-1.932;2023-09-07T14:06:47;35;35;
49644;PMS5003;36494;50.730;-1.932;2023-09-07T14:09:13;34;32;
49644;PMS5003;36494;50.730;-1.932;2023-09-07T14:11:38;29;27;
49644;PMS5003;36494;50.730;-1.932;2023-09-07T14:14:04;34;32;
49644;PMS5003;36494;50.730;-1.932;2023-09-07T14:16:29;31;29;
49644;PMS5003;36494;50.730;-1.932;2023-09-07T14:18:55;31;29;
49644;PMS5003;36494;50.730;-1.932;2023-09-07T14:21:20;31;29;
49644;PMS5003;36494;50.730;-1.932;2023-09-07T14:23:46;31;30;
49644;PMS5003;36494;50.730;-1.932;2023-09-07T14:26:11;28;27;
49644;PMS5003;36494;50.730;-1.932;2023-09-07T14:28:37;27;26;
49644;PMS5003;36494;50.730;-1.932;2023-09-07T14:31:03;30;30;
49644;PMS5003;36494;50.730;-1.932;2023-09-07T14:33:28;32;29;
49644;PMS5003;36494;50.730;-1.932;2023-09-07T14:35:54;35;33;
49644;PMS5003;36494;50.730;-1.932;2023-09-07T14:38:19;37;36;
49644;PMS5003;36494;50.730;-1.932;2023-09-07T14:40:45;35;34;
49644;PMS5003;36494;50.730;-1.932;2023-09-07T14:43:10;32;32;
49644;PMS5003;36494;50.730;-1.932;2023-09-07T14:45:36;31;29;
49644;PMS5003;36494;50.730;-1.932;2023-09-07T14:48:01;30;30;
49644;PMS5003;36494;50.730;-1.932;2023-09-07T14:50:27;27;27;
49644;PMS5003;36494;50.730;-1.932;2023-09-07T14:52:53;36;34;
49644;PMS5003;36494;50.730;-1.932;2023-09-07T14:55:18;31;30;
49644;PMS5003;36494;50.730;-1.932;2023-09-07T14:57:44;24;23;
49644;PMS5003;36494;50.730;-1.932;2023-09-07T15:00:10;27;25;
49644;PMS5003;36494;50.730;-1.932;2023-09-07T15:02:36;30;30;
49644;PMS5003;36494;50.730;-1.932;2023-09-07T15:05:02;28;28;
49644;PMS5003;36494;50.730;-1.932;2023-09-07T15:07:28;24;24;
49644;PMS5003;36494;50.730;-1.932;2023-09-07T15:09:53;38;32;
49644;PMS5003;36494;50.730;-1.932;2023-09-07T15:12:18;29;28;
49644;PMS5003;36494;50.730;-1.932;2023-09-07T15:14:43;24;24;
49644;PMS5003;36494;50.730;-1.932;2023-09-07T15:17:09;34;32;
49644;PMS5003;36494;50.730;-1.932;2023-09-07T15:19:34;29;27;
49644;PMS5003;36494;50.730;-1.932;2023-09-07T15:22:00;28;28;
49644;PMS5003;36494;50.730;-1.932;2023-09-07T15:24:25;28;27;
49644;PMS5003;36494;50.730;-1.932;2023-09-07T15:26:51;25;25;
49644;PMS5003;36494;50.730;-1.932;2023-09-07T15:29:17;26;24;
49644;PMS5003;36494;50.730;-1.932;2023-09-07T15:31:42;21;19;
49644;PMS5003;36494;50.730;-1.932;2023-09-07T15:34:08;22;20;
49644;PMS5003;36494;50.730;-1.932;2023-09-07T15:36:34;20;19;
49644;PMS5003;36494;50.730;-1.932;2023-09-07T15:39:00;27;27;
49644;PMS5003;36494;50.730;-1.932;2023-09-07T15:41:25;22;21;
49644;PMS5003;36494;50.730;-1.932;2023-09-07T15:43:51;20;20;
49644;PMS5003;36494;50.730;-1.932;2023-09-07T15:46:16;21;19;
49644;PMS5003;36494;50.730;-1.932;2023-09-07T15:48:42;20;20;
49644;PMS5003;36494;50.730;-1.932;2023-09-07T15:51:07;21;21;
49644;PMS5003;36494;50.730;-1.932;2023-09-07T15:53:33;18;18;